Time;durP1;ratioP1;P1;durP2;ratioP2;P2;SDS_P1;SDS_P2;PMS_P1;PMS_P2;Temp;Humidity;BMP_temperature;BMP_pressure;BME280_temperature;BME280_humidity;BME280_pressure;Samples;Min_cycle;Max_cycle;Signal;HPM_P1;HPM_P2
2023/10/30 00:00:47;;;;;;;9.90;3.88;;;;;;;;;;5011298;28;20055;-59
2023/10/30 00:03:14;;;;;;;11.13;3.40;;;;;;;;;;5012237;28;20029;-59
2023/10/30 00:05:39;;;;;;;11.32;4.10;;;;;;;;;;5011195;28;20497;-59
2023/10/30 00:08:04;;;;;;;8.50;3.40;;;;;;;;;;5012174;28;20026;-59
2023/10/30 00:10:29;;;;;;;7.68;2.92;;;;;;;;;;5010970;28;20485;-59
2023/10/30 00:12:55;;;;;;;8.90;3.57;;;;;;;;;;5012423;28;20021;-59
2023/10/30 00:15:20;;;;;;;23.33;5.77;;;;;;;;;;5011401;28;21108;-59
2023/10/30 00:17:45;;;;;;;9.20;3.92;;;;;;;;;;5012342;28;20046;-59
2023/10/30 00:20:11;;;;;;;18.27;3.92;;;;;;;;;;5010345;28;20032;-58
2023/10/30 00:22:36;;;;;;;19.73;5.37;;;;;;;;;;5012565;28;20038;-59
2023/10/30 00:25:02;;;;;;;7.82;2.90;;;;;;;;;;5010311;28;20020;-59
2023/10/30 00:27:27;;;;;;;16.38;3.47;;;;;;;;;;5010466;28;20034;-59
2023/10/30 00:29:53;;;;;;;14.83;4.67;;;;;;;;;;5010465;28;20425;-60
2023/10/30 00:32:18;;;;;;;15.80;4.50;;;;;;;;;;5011743;28;20097;-61
2023/10/30 00:34:43;;;;;;;12.90;3.93;;;;;;;;;;5010526;28;20488;-59
2023/10/30 00:37:09;;;;;;;13.52;3.63;;;;;;;;;;5011819;28;20488;-59
2023/10/30 00:39:35;;;;;;;11.68;4.15;;;;;;;;;;5010368;28;20018;-59
2023/10/30 00:42:00;;;;;;;11.17;3.73;;;;;;;;;;5011648;28;20211;-58
2023/10/30 00:44:25;;;;;;;13.53;5.57;;;;;;;;;;5011838;28;20484;-59
2023/10/30 00:46:53;;;;;;;18.67;4.32;;;;;;;;;;5010122;28;20575;-59
2023/10/30 00:49:18;;;;;;;15.68;2.97;;;;;;;;;;5012033;28;20037;-59
2023/10/30 00:51:43;;;;;;;11.48;4.43;;;;;;;;;;5010341;28;20624;-59
2023/10/30 00:54:08;;;;;;;15.60;4.33;;;;;;;;;;5011594;28;20040;-59
2023/10/30 00:56:33;;;;;;;8.27;3.75;;;;;;;;;;5010181;28;20493;-60
2023/10/30 00:58:58;;;;;;;10.38;3.42;;;;;;;;;;5011748;28;20026;-60
2023/10/30 01:01:25;;;;;;;9.68;4.10;;;;;;;;;;5009706;28;20489;-60
2023/10/30 01:03:50;;;;;;;11.75;3.88;;;;;;;;;;5011051;28;20025;-66
2023/10/30 01:06:15;;;;;;;7.63;3.57;;;;;;;;;;5009845;28;20100;-59
2023/10/30 01:08:40;;;;;;;12.37;3.00;;;;;;;;;;5011218;28;20421;-59
2023/10/30 01:11:05;;;;;;;9.67;3.83;;;;;;;;;;5009714;28;20026;-59
2023/10/30 01:13:32;;;;;;;12.47;4.70;;;;;;;;;;5011711;28;20080;-59
2023/10/30 01:15:57;;;;;;;13.85;3.83;;;;;;;;;;5009342;28;20508;-59
2023/10/30 01:18:23;;;;;;;9.50;3.97;;;;;;;;;;5011330;28;20022;-59
2023/10/30 01:20:48;;;;;;;9.30;3.13;;;;;;;;;;5009871;28;20451;-59
2023/10/30 01:23:14;;;;;;;6.97;3.17;;;;;;;;;;5010782;28;20051;-60
2023/10/30 01:25:39;;;;;;;9.30;3.45;;;;;;;;;;5009280;28;20042;-59
2023/10/30 01:28:04;;;;;;;11.77;4.57;;;;;;;;;;5011004;28;20041;-60
2023/10/30 01:30:29;;;;;;;12.00;3.73;;;;;;;;;;5009572;28;20064;-60
2023/10/30 01:32:54;;;;;;;12.87;4.87;;;;;;;;;;5010991;28;20010;-59
2023/10/30 01:35:20;;;;;;;11.70;3.87;;;;;;;;;;5009560;28;20197;-60
2023/10/30 01:37:45;;;;;;;7.37;2.53;;;;;;;;;;5010759;28;20421;-59
2023/10/30 01:40:10;;;;;;;11.47;4.27;;;;;;;;;;5009090;28;20042;-59
2023/10/30 01:42:35;;;;;;;9.55;3.58;;;;;;;;;;5011050;28;20061;-59
2023/10/30 01:45:01;;;;;;;21.02;5.88;;;;;;;;;;5009221;28;20045;-59
2023/10/30 01:47:26;;;;;;;10.05;3.67;;;;;;;;;;5011375;28;20428;-59
2023/10/30 01:49:52;;;;;;;16.30;4.43;;;;;;;;;;5009640;28;20034;-59
2023/10/30 01:52:17;;;;;;;10.13;5.07;;;;;;;;;;5010815;28;20018;-60
2023/10/30 01:54:43;;;;;;;14.05;5.57;;;;;;;;;;5009600;28;20052;-59
2023/10/30 01:57:08;;;;;;;17.88;3.25;;;;;;;;;;5010791;28;20388;-60
2023/10/30 01:59:34;;;;;;;7.05;3.00;;;;;;;;;;5009326;28;20037;-60
2023/10/30 02:01:59;;;;;;;17.25;4.70;;;;;;;;;;5011094;28;20475;-59
2023/10/30 02:04:25;;;;;;;10.10;4.97;;;;;;;;;;5010877;28;20029;-59
2023/10/30 02:06:50;;;;;;;9.82;3.72;;;;;;;;;;5009018;28;20046;-59
2023/10/30 02:09:15;;;;;;;12.32;3.88;;;;;;;;;;5010395;28;20020;-60
2023/10/30 02:11:40;;;;;;;10.98;2.97;;;;;;;;;;5009507;28;20658;-59
2023/10/30 02:14:05;;;;;;;20.23;5.07;;;;;;;;;;5010452;28;20376;-60
2023/10/30 02:16:31;;;;;;;14.07;3.90;;;;;;;;;;5012641;28;20058;-59
2023/10/30 02:18:56;;;;;;;12.23;4.10;;;;;;;;;;5014437;28;20431;-59
2023/10/30 02:21:21;;;;;;;14.40;5.60;;;;;;;;;;5012889;28;20469;-59
2023/10/30 02:23:47;;;;;;;16.90;4.93;;;;;;;;;;5014023;28;20054;-59
2023/10/30 02:26:12;;;;;;;11.35;4.25;;;;;;;;;;5012835;28;20508;-59
2023/10/30 02:28:37;;;;;;;18.83;4.20;;;;;;;;;;5014498;28;20025;-59
2023/10/30 02:31:02;;;;;;;13.48;5.10;;;;;;;;;;5012378;28;20099;-59
2023/10/30 02:33:27;;;;;;;19.17;4.63;;;;;;;;;;5014338;28;20385;-59
2023/10/30 02:35:52;;;;;;;9.30;3.20;;;;;;;;;;5012486;28;20453;-59
2023/10/30 02:38:17;;;;;;;13.53;4.90;;;;;;;;;;5014248;28;20018;-59
2023/10/30 02:40:43;;;;;;;17.63;2.80;;;;;;;;;;5012904;28;20034;-59
2023/10/30 02:43:08;;;;;;;11.23;5.00;;;;;;;;;;5014022;28;20052;-59
2023/10/30 02:45:33;;;;;;;13.65;4.22;;;;;;;;;;5012249;28;20038;-59
2023/10/30 02:47:58;;;;;;;11.23;3.20;;;;;;;;;;5013948;28;20029;-59
2023/10/30 02:50:23;;;;;;;12.27;4.33;;;;;;;;;;5012317;28;20030;-59
2023/10/30 02:52:50;;;;;;;14.10;4.90;;;;;;;;;;5013744;28;20018;-60
2023/10/30 02:55:15;;;;;;;6.78;3.95;;;;;;;;;;5012582;28;20034;-60
2023/10/30 02:57:40;;;;;;;12.25;3.72;;;;;;;;;;5013755;28;20076;-59
2023/10/30 03:00:06;;;;;;;14.65;5.30;;;;;;;;;;5012122;28;20034;-60
2023/10/30 03:02:31;;;;;;;9.93;3.95;;;;;;;;;;5013849;28;20688;-60
2023/10/30 03:04:57;;;;;;;10.60;3.97;;;;;;;;;;5012279;28;20036;-59
2023/10/30 03:07:22;;;;;;;19.80;4.03;;;;;;;;;;5013210;28;20488;-60
2023/10/30 03:09:47;;;;;;;8.02;3.05;;;;;;;;;;5012265;28;20034;-60
2023/10/30 03:12:12;;;;;;;10.55;3.17;;;;;;;;;;5013448;28;20026;-60
2023/10/30 03:14:37;;;;;;;12.20;5.03;;;;;;;;;;5011955;28;20497;-64
2023/10/30 03:17:03;;;;;;;9.05;3.90;;;;;;;;;;5013213;28;20108;-60
2023/10/30 03:19:28;;;;;;;19.00;4.07;;;;;;;;;;5012003;28;20080;-60
2023/10/30 03:21:53;;;;;;;15.45;5.45;;;;;;;;;;5012965;28;20516;-60
2023/10/30 03:24:18;;;;;;;11.73;3.97;;;;;;;;;;5013563;28;20474;-59
2023/10/30 03:26:43;;;;;;;20.07;6.37;;;;;;;;;;5011056;28;20038;-59
2023/10/30 03:29:08;;;;;;;12.63;3.33;;;;;;;;;;5012733;28;20018;-59
2023/10/30 03:31:34;;;;;;;13.40;3.87;;;;;;;;;;5011961;28;20037;-59
2023/10/30 03:33:59;;;;;;;10.00;3.70;;;;;;;;;;5013079;28;20034;-59
2023/10/30 03:36:24;;;;;;;10.47;5.27;;;;;;;;;;5011096;28;20519;-59
2023/10/30 03:38:50;;;;;;;10.55;3.55;;;;;;;;;;5013143;28;20765;-59
2023/10/30 03:41:16;;;;;;;13.23;4.85;;;;;;;;;;5011542;28;20141;-59
2023/10/30 03:43:41;;;;;;;11.13;4.53;;;;;;;;;;5012589;28;20018;-59
2023/10/30 03:46:06;;;;;;;26.15;5.55;;;;;;;;;;5011052;28;20454;-59
2023/10/30 03:48:31;;;;;;;12.50;3.77;;;;;;;;;;5013005;28;20022;-60
2023/10/30 03:50:57;;;;;;;14.88;4.28;;;;;;;;;;5010641;28;20030;-59
2023/10/30 03:53:22;;;;;;;12.43;3.60;;;;;;;;;;5012999;28;20076;-59
2023/10/30 03:55:47;;;;;;;13.43;4.25;;;;;;;;;;5011470;28;20041;-59
2023/10/30 03:58:12;;;;;;;10.40;3.27;;;;;;;;;;5012051;28;20053;-59
2023/10/30 04:00:37;;;;;;;12.60;3.17;;;;;;;;;;5011299;28;20452;-59
2023/10/30 04:03:02;;;;;;;17.13;4.30;;;;;;;;;;5011240;28;20079;-59
2023/10/30 04:05:28;;;;;;;15.70;3.97;;;;;;;;;;5010841;28;20041;-59
2023/10/30 04:07:53;;;;;;;10.77;3.50;;;;;;;;;;5012318;28;20186;-59
2023/10/30 04:10:18;;;;;;;11.57;4.53;;;;;;;;;;5010877;28;20445;-58
2023/10/30 04:12:43;;;;;;;18.67;5.22;;;;;;;;;;5012189;28;20022;-58
2023/10/30 04:15:09;;;;;;;11.20;3.78;;;;;;;;;;5010534;28;20508;-59
2023/10/30 04:17:34;;;;;;;17.15;5.30;;;;;;;;;;5012335;28;20032;-59
2023/10/30 04:19:59;;;;;;;13.23;4.93;;;;;;;;;;5010685;28;20025;-60
2023/10/30 04:22:24;;;;;;;16.50;5.10;;;;;;;;;;5011978;28;20018;-59
2023/10/30 04:24:49;;;;;;;7.80;3.08;;;;;;;;;;5011106;28;20029;-59
2023/10/30 04:27:14;;;;;;;13.88;3.72;;;;;;;;;;5011933;28;20022;-60
2023/10/30 04:29:41;;;;;;;18.08;5.13;;;;;;;;;;5010322;28;20083;-59
2023/10/30 04:32:07;;;;;;;17.10;6.00;;;;;;;;;;5012253;28;20067;-60
2023/10/30 04:34:32;;;;;;;12.20;4.05;;;;;;;;;;5010433;28;20054;-60
2023/10/30 04:36:57;;;;;;;13.87;2.67;;;;;;;;;;5011709;28;20018;-60
2023/10/30 04:39:22;;;;;;;13.30;3.33;;;;;;;;;;5011406;28;20432;-60
2023/10/30 04:41:48;;;;;;;12.20;4.33;;;;;;;;;;5010309;28;20089;-60
2023/10/30 04:44:14;;;;;;;10.60;4.93;;;;;;;;;;5011329;28;20033;-60
2023/10/30 04:46:40;;;;;;;13.97;4.53;;;;;;;;;;5009238;28;20041;-60
2023/10/30 04:49:05;;;;;;;12.88;3.42;;;;;;;;;;5011565;28;20432;-60
2023/10/30 04:51:30;;;;;;;10.35;4.20;;;;;;;;;;5010030;28;20117;-60
2023/10/30 04:53:55;;;;;;;26.13;6.00;;;;;;;;;;5011611;28;20461;-66
2023/10/30 04:56:21;;;;;;;14.82;5.55;;;;;;;;;;5025464;28;20137;-60
2023/10/30 04:58:46;;;;;;;13.37;3.97;;;;;;;;;;5031273;28;20048;-60
2023/10/30 05:01:12;;;;;;;14.10;3.73;;;;;;;;;;5029617;28;20475;-60
2023/10/30 05:03:38;;;;;;;10.40;2.88;;;;;;;;;;5031529;28;20466;-60
2023/10/30 05:06:03;;;;;;;18.20;5.03;;;;;;;;;;5029186;28;20041;-60
2023/10/30 05:08:28;;;;;;;6.22;3.20;;;;;;;;;;5031311;28;20096;-60
2023/10/30 05:10:53;;;;;;;6.87;3.40;;;;;;;;;;5029070;28;20040;-61
2023/10/30 05:13:20;;;;;;;21.13;5.30;;;;;;;;;;5029614;28;20029;-58
2023/10/30 05:15:45;;;;;;;7.85;3.25;;;;;;;;;;5028850;28;20129;-58
2023/10/30 05:18:10;;;;;;;6.13;2.70;;;;;;;;;;5030385;28;20445;-58
2023/10/30 05:20:35;;;;;;;7.80;3.30;;;;;;;;;;5028495;28;20478;-57
2023/10/30 05:23:00;;;;;;;9.32;3.67;;;;;;;;;;5030686;28;20037;-58
2023/10/30 05:25:25;;;;;;;8.17;3.87;;;;;;;;;;5029427;28;20103;-57
2023/10/30 05:27:51;;;;;;;15.90;4.47;;;;;;;;;;5030579;28;20492;-58
2023/10/30 05:30:16;;;;;;;19.67;6.07;;;;;;;;;;5029297;28;20037;-58
2023/10/30 05:32:41;;;;;;;6.33;4.60;;;;;;;;;;5031061;28;20421;-58
2023/10/30 05:35:06;;;;;;;13.43;4.40;;;;;;;;;;5028203;28;20460;-58
2023/10/30 05:37:31;;;;;;;10.07;2.42;;;;;;;;;;5029535;28;20029;-59
2023/10/30 05:39:57;;;;;;;7.72;2.95;;;;;;;;;;5028420;28;20037;-58
2023/10/30 05:42:22;;;;;;;11.52;3.45;;;;;;;;;;5030126;28;20026;-58
2023/10/30 05:44:47;;;;;;;10.67;3.03;;;;;;;;;;5029482;28;20017;-59
2023/10/30 05:47:13;;;;;;;19.87;3.53;;;;;;;;;;5030220;28;20036;-58
2023/10/30 05:49:38;;;;;;;16.15;6.45;;;;;;;;;;5030738;28;20064;-58
2023/10/30 05:52:04;;;;;;;10.38;4.18;;;;;;;;;;5037193;28;20024;-58
2023/10/30 05:54:29;;;;;;;15.70;3.63;;;;;;;;;;5036112;28;20022;-57
2023/10/30 05:56:54;;;;;;;7.13;3.65;;;;;;;;;;5036685;28;20049;-58
2023/10/30 05:59:20;;;;;;;14.20;3.83;;;;;;;;;;5037624;28;20068;-70
2023/10/30 06:01:47;;;;;;;14.02;4.00;;;;;;;;;;5035427;28;20044;-58
2023/10/30 06:04:12;;;;;;;16.73;4.60;;;;;;;;;;5036873;28;20052;-58
2023/10/30 06:06:38;;;;;;;13.23;3.70;;;;;;;;;;5035867;28;20081;-59
2023/10/30 06:09:04;;;;;;;11.38;5.03;;;;;;;;;;5036853;28;20021;-58
2023/10/30 06:11:29;;;;;;;10.60;4.23;;;;;;;;;;5035244;28;20116;-58
2023/10/30 06:13:54;;;;;;;13.40;3.20;;;;;;;;;;5036922;28;20032;-58
2023/10/30 06:16:19;;;;;;;11.00;3.90;;;;;;;;;;5035470;28;20118;-59
2023/10/30 06:18:44;;;;;;;9.83;3.27;;;;;;;;;;5037046;28;20481;-57
2023/10/30 06:21:14;;;;;;;29.02;6.15;;;;;;;;;;5035429;28;20451;-58
2023/10/30 06:23:39;;;;;;;10.45;3.00;;;;;;;;;;5036786;28;20110;-58
2023/10/30 06:26:08;;;;;;;11.95;4.18;;;;;;;;;;5035210;28;20068;-58
2023/10/30 06:28:33;;;;;;;10.68;3.97;;;;;;;;;;5037302;28;20013;-58
2023/10/30 06:30:59;;;;;;;14.25;3.85;;;;;;;;;;5034875;28;20395;-58
2023/10/30 06:33:24;;;;;;;10.68;5.10;;;;;;;;;;5036784;28;20044;-59
2023/10/30 06:35:55;;;;;;;9.57;4.23;;;;;;;;;;5004896;28;20054;-59
2023/10/30 06:38:20;;;;;;;12.77;3.67;;;;;;;;;;4997602;28;20476;-58
2023/10/30 06:40:45;;;;;;;22.73;5.95;;;;;;;;;;4995471;28;20136;-58
2023/10/30 06:43:10;;;;;;;17.92;4.32;;;;;;;;;;4997000;28;20421;-58
2023/10/30 06:45:35;;;;;;;15.90;4.30;;;;;;;;;;5004679;28;20038;-60
2023/10/30 06:48:00;;;;;;;8.53;4.37;;;;;;;;;;5016730;28;20025;-57
2023/10/30 06:50:25;;;;;;;13.02;3.95;;;;;;;;;;5015233;28;20366;-57
2023/10/30 06:52:51;;;;;;;11.38;6.28;;;;;;;;;;5017172;28;20033;-57
2023/10/30 06:55:16;;;;;;;13.98;3.75;;;;;;;;;;5015109;28;20060;-57
2023/10/30 06:57:41;;;;;;;14.90;4.60;;;;;;;;;;5016726;28;20025;-57
2023/10/30 07:00:07;;;;;;;15.33;6.30;;;;;;;;;;5015284;28;20053;-57
2023/10/30 07:02:33;;;;;;;12.68;3.38;;;;;;;;;;5013090;28;20994;-55
2023/10/30 07:04:58;;;;;;;14.48;6.22;;;;;;;;;;5011976;28;20396;-55
2023/10/30 07:07:23;;;;;;;17.92;4.05;;;;;;;;;;5013812;28;20029;-56
2023/10/30 07:09:50;;;;;;;12.47;4.07;;;;;;;;;;5012264;28;20042;-55
2023/10/30 07:12:15;;;;;;;15.07;4.05;;;;;;;;;;5013183;28;20436;-56
2023/10/30 07:14:40;;;;;;;12.20;4.53;;;;;;;;;;5012057;28;20025;-56
2023/10/30 07:17:05;;;;;;;8.88;3.92;;;;;;;;;;5013391;28;20030;-56
2023/10/30 07:19:31;;;;;;;7.70;3.30;;;;;;;;;;5012072;28;20068;-55
2023/10/30 07:21:56;;;;;;;12.15;6.15;;;;;;;;;;5013456;28;20041;-56
2023/10/30 07:24:21;;;;;;;14.35;3.00;;;;;;;;;;5013382;28;20025;-56
2023/10/30 07:26:46;;;;;;;13.57;4.85;;;;;;;;;;5011464;28;20497;-56
2023/10/30 07:29:11;;;;;;;18.27;4.38;;;;;;;;;;5013272;28;20029;-56
2023/10/30 07:31:37;;;;;;;15.50;3.83;;;;;;;;;;5011874;28;20449;-56
2023/10/30 07:34:03;;;;;;;7.43;3.88;;;;;;;;;;5017668;28;20041;-56
2023/10/30 07:36:28;;;;;;;9.20;4.25;;;;;;;;;;5031600;28;20033;-56
2023/10/30 07:38:53;;;;;;;9.52;4.97;;;;;;;;;;5032761;28;20026;-56
2023/10/30 07:41:18;;;;;;;10.70;4.13;;;;;;;;;;5031091;28;20041;-56
2023/10/30 07:43:43;;;;;;;11.03;3.17;;;;;;;;;;5032864;28;20067;-56
2023/10/30 07:46:11;;;;;;;11.23;3.23;;;;;;;;;;5031425;28;20572;-56
2023/10/30 07:48:37;;;;;;;11.88;4.45;;;;;;;;;;5032049;28;20101;-56
2023/10/30 07:51:02;;;;;;;8.80;2.72;;;;;;;;;;5031144;28;20125;-56
2023/10/30 07:53:28;;;;;;;13.15;4.05;;;;;;;;;;5032754;28;20496;-56
2023/10/30 07:55:53;;;;;;;15.48;4.10;;;;;;;;;;5029593;28;20109;-56
2023/10/30 07:58:19;;;;;;;18.77;4.43;;;;;;;;;;5030791;28;20103;-56
2023/10/30 08:00:44;;;;;;;10.68;2.90;;;;;;;;;;5029135;28;20033;-56
2023/10/30 08:03:09;;;;;;;14.43;6.00;;;;;;;;;;5030113;28;20018;-56
2023/10/30 08:05:34;;;;;;;18.88;4.43;;;;;;;;;;5028860;28;20037;-56
2023/10/30 08:07:59;;;;;;;10.57;3.35;;;;;;;;;;5030958;28;20364;-56
2023/10/30 08:10:26;;;;;;;9.07;4.30;;;;;;;;;;5026572;28;20036;-68
2023/10/30 08:12:51;;;;;;;13.45;3.45;;;;;;;;;;5031222;28;20521;-56
2023/10/30 08:15:16;;;;;;;8.65;3.83;;;;;;;;;;5030687;28;20065;-56
2023/10/30 08:17:41;;;;;;;8.60;3.90;;;;;;;;;;5031561;28;20009;-56
2023/10/30 08:20:07;;;;;;;12.70;3.63;;;;;;;;;;5025454;28;20492;-56
2023/10/30 08:22:32;;;;;;;10.38;3.10;;;;;;;;;;5012659;28;20423;-56
2023/10/30 08:24:57;;;;;;;16.03;3.73;;;;;;;;;;5010424;28;20037;-56
2023/10/30 08:27:22;;;;;;;16.48;3.88;;;;;;;;;;5012035;28;20547;-56
2023/10/30 08:29:47;;;;;;;20.73;4.65;;;;;;;;;;5013139;28;20481;-60
2023/10/30 08:32:13;;;;;;;15.90;4.50;;;;;;;;;;5031210;28;20022;-57
2023/10/30 08:34:38;;;;;;;11.40;4.05;;;;;;;;;;5030248;28;20133;-56
2023/10/30 08:37:03;;;;;;;10.98;4.88;;;;;;;;;;5031419;28;20052;-56
2023/10/30 08:39:28;;;;;;;15.40;4.67;;;;;;;;;;5031631;28;20487;-56
2023/10/30 08:41:54;;;;;;;28.17;3.70;;;;;;;;;;5030308;28;20458;-56
2023/10/30 08:44:19;;;;;;;8.30;2.40;;;;;;;;;;5031442;28;20033;-56
2023/10/30 08:46:44;;;;;;;19.83;3.67;;;;;;;;;;5029953;28;20041;-56
2023/10/30 08:49:09;;;;;;;8.13;4.90;;;;;;;;;;5031670;28;20424;-56
2023/10/30 08:51:41;;;;;;;11.55;3.30;;;;;;;;;;5013551;28;20064;-56
2023/10/30 08:54:06;;;;;;;17.48;4.70;;;;;;;;;;5010704;28;20482;-56
2023/10/30 08:56:32;;;;;;;13.68;4.00;;;;;;;;;;5009611;28;20034;-56
2023/10/30 08:58:57;;;;;;;6.35;2.67;;;;;;;;;;5010891;28;20034;-56
2023/10/30 09:01:22;;;;;;;12.43;3.40;;;;;;;;;;5009166;28;20052;-56
2023/10/30 09:03:47;;;;;;;10.35;3.03;;;;;;;;;;5010867;28;20013;-56
2023/10/30 09:06:13;;;;;;;5.95;2.60;;;;;;;;;;5009104;28;20108;-57
2023/10/30 09:08:38;;;;;;;10.57;3.43;;;;;;;;;;5011184;28;20448;-56
2023/10/30 09:11:03;;;;;;;9.30;2.73;;;;;;;;;;5009476;28;20991;-56
2023/10/30 09:13:28;;;;;;;9.07;4.03;;;;;;;;;;5011415;28;20413;-56
2023/10/30 09:15:53;;;;;;;19.88;4.03;;;;;;;;;;5009845;28;20121;-56
2023/10/30 09:18:18;;;;;;;17.97;5.17;;;;;;;;;;5011327;28;20026;-56
2023/10/30 09:20:44;;;;;;;12.57;3.60;;;;;;;;;;5010027;28;20382;-56
2023/10/30 09:23:09;;;;;;;6.20;3.10;;;;;;;;;;5011351;28;20018;-56
2023/10/30 09:25:34;;;;;;;12.07;3.17;;;;;;;;;;5008855;28;20445;-56
2023/10/30 09:28:00;;;;;;;10.57;3.97;;;;;;;;;;5010874;28;20025;-56
2023/10/30 09:30:30;;;;;;;9.98;3.20;;;;;;;;;;5009800;28;20076;-56
2023/10/30 09:32:55;;;;;;;10.65;3.45;;;;;;;;;;5010856;28;20428;-56
2023/10/30 09:35:21;;;;;;;11.88;3.55;;;;;;;;;;5009552;28;20042;-56
2023/10/30 09:37:46;;;;;;;9.15;4.97;;;;;;;;;;5008341;28;20040;-56
2023/10/30 09:40:12;;;;;;;8.95;2.58;;;;;;;;;;5008883;28;20684;-56
2023/10/30 09:42:37;;;;;;;16.38;4.03;;;;;;;;;;5010761;28;20018;-56
2023/10/30 09:45:03;;;;;;;13.10;4.95;;;;;;;;;;5009299;28;20524;-56
2023/10/30 09:47:28;;;;;;;9.60;3.22;;;;;;;;;;5010907;28;20025;-56
2023/10/30 09:49:54;;;;;;;15.70;3.87;;;;;;;;;;5009200;28;20033;-56
2023/10/30 09:52:19;;;;;;;15.85;4.13;;;;;;;;;;5010943;28;20431;-55
2023/10/30 09:54:46;;;;;;;9.10;3.53;;;;;;;;;;5009149;28;20014;-55
2023/10/30 09:57:12;;;;;;;12.20;4.40;;;;;;;;;;5010771;28;20029;-56
2023/10/30 09:59:38;;;;;;;8.93;4.13;;;;;;;;;;5009359;28;20037;-56
2023/10/30 10:02:03;;;;;;;14.25;3.78;;;;;;;;;;5010369;28;20022;-56
2023/10/30 10:04:28;;;;;;;20.60;5.28;;;;;;;;;;5010794;28;20018;-59
2023/10/30 10:06:53;;;;;;;6.53;2.55;;;;;;;;;;5009012;28;20499;-55
2023/10/30 10:09:19;;;;;;;8.45;3.10;;;;;;;;;;5010724;28;20025;-55
2023/10/30 10:11:44;;;;;;;18.55;5.43;;;;;;;;;;5009204;28;20054;-55
2023/10/30 10:14:09;;;;;;;15.23;2.90;;;;;;;;;;5010645;28;20022;-56
2023/10/30 10:16:35;;;;;;;11.52;3.72;;;;;;;;;;5009063;28;20113;-55
2023/10/30 10:19:17;;;;;;;8.82;5.25;;;;;;;;;;5010771;28;20017;-56
2023/10/30 10:21:49;;;;;;;5.72;2.92;;;;;;;;;;5009287;28;20037;-55
2023/10/30 10:24:25;;;;;;;9.43;3.28;;;;;;;;;;5010350;28;20022;-56
2023/10/30 10:26:51;;;;;;;11.70;4.15;;;;;;;;;;5009155;28;20034;-56
2023/10/30 10:29:21;;;;;;;10.27;4.28;;;;;;;;;;5010818;28;20018;-62
2023/10/30 10:31:46;;;;;;;11.35;3.95;;;;;;;;;;5008681;28;20030;-60
2023/10/30 10:34:11;;;;;;;9.95;2.80;;;;;;;;;;5010495;28;20868;-58
2023/10/30 10:36:40;;;;;;;13.20;4.27;;;;;;;;;;5009651;28;20042;-55
2023/10/30 10:39:05;;;;;;;14.15;4.22;;;;;;;;;;5013742;28;20428;-55
2023/10/30 10:41:31;;;;;;;15.30;5.13;;;;;;;;;;5012120;28;20034;-55
2023/10/30 10:43:56;;;;;;;13.00;3.92;;;;;;;;;;5012652;28;20489;-55
2023/10/30 10:46:21;;;;;;;9.90;2.88;;;;;;;;;;5011302;28;20046;-55
2023/10/30 10:48:47;;;;;;;11.60;4.90;;;;;;;;;;5013116;28;20075;-55
2023/10/30 10:51:13;;;;;;;9.32;3.78;;;;;;;;;;5010869;28;20449;-55
2023/10/30 10:53:39;;;;;;;11.85;4.28;;;;;;;;;;5012425;28;20020;-55
2023/10/30 10:56:05;;;;;;;10.68;3.50;;;;;;;;;;5010370;28;20046;-55
2023/10/30 10:58:38;;;;;;;8.90;3.40;;;;;;;;;;5012596;28;20504;-56
2023/10/30 11:01:05;;;;;;;6.75;2.88;;;;;;;;;;5011903;28;20505;-55
2023/10/30 11:03:30;;;;;;;13.00;3.13;;;;;;;;;;5013871;28;20025;-56
2023/10/30 11:05:56;;;;;;;9.00;2.65;;;;;;;;;;5012029;28;20033;-55
2023/10/30 11:08:36;;;;;;;9.68;3.10;;;;;;;;;;5013387;28;20021;-65
2023/10/30 11:11:11;;;;;;;8.05;3.65;;;;;;;;;;5010655;28;20033;-56
2023/10/30 11:13:43;;;;;;;13.25;2.78;;;;;;;;;;5013524;28;20045;-66
2023/10/30 11:16:26;;;;;;;9.30;4.38;;;;;;;;;;5011491;28;20433;-56
2023/10/30 11:18:54;;;;;;;5.10;2.75;;;;;;;;;;5003144;28;20048;-62
2023/10/30 11:21:22;;;;;;;13.43;3.28;;;;;;;;;;5011502;28;20412;-57
2023/10/30 11:23:49;;;;;;;15.27;6.10;;;;;;;;;;5012922;28;20021;-56
2023/10/30 11:26:29;;;;;;;10.52;4.38;;;;;;;;;;5011886;28;20045;-55
2023/10/30 11:28:54;;;;;;;18.10;3.53;;;;;;;;;;5012162;28;20018;-55
2023/10/30 11:31:20;;;;;;;11.63;2.38;;;;;;;;;;5006037;28;20045;-55
2023/10/30 11:33:45;;;;;;;8.60;3.53;;;;;;;;;;5011182;28;20715;-56
2023/10/30 11:36:16;;;;;;;9.97;2.30;;;;;;;;;;5019943;28;20052;-55
2023/10/30 11:38:51;;;;;;;11.63;3.75;;;;;;;;;;5024560;28;20049;-56
2023/10/30 11:41:16;;;;;;;12.25;3.35;;;;;;;;;;5009800;28;20037;-55
2023/10/30 11:43:42;;;;;;;11.75;2.72;;;;;;;;;;5011129;28;20021;-56
2023/10/30 11:46:07;;;;;;;6.05;2.58;;;;;;;;;;5010771;28;20038;-55
2023/10/30 11:48:32;;;;;;;12.80;3.57;;;;;;;;;;5012680;28;20010;-55
2023/10/30 11:50:58;;;;;;;8.37;2.60;;;;;;;;;;5011043;28;20053;-55
2023/10/30 11:53:25;;;;;;;8.38;2.83;;;;;;;;;;5012757;28;20018;-55
2023/10/30 11:55:51;;;;;;;9.48;5.15;;;;;;;;;;5011034;28;20049;-55
2023/10/30 11:58:18;;;;;;;9.75;2.70;;;;;;;;;;5012691;28;20021;-56
2023/10/30 12:00:47;;;;;;;5.13;2.78;;;;;;;;;;5011102;28;20049;-56
2023/10/30 12:03:13;;;;;;;12.27;4.13;;;;;;;;;;5012506;28;20073;-55
2023/10/30 12:05:38;;;;;;;6.25;3.72;;;;;;;;;;5011071;28;20062;-56
2023/10/30 12:08:04;;;;;;;9.32;2.95;;;;;;;;;;5012169;28;20017;-62
2023/10/30 12:10:30;;;;;;;13.52;3.90;;;;;;;;;;5011150;28;20026;-56
2023/10/30 12:12:55;;;;;;;3.97;2.38;;;;;;;;;;5012275;28;20025;-56
2023/10/30 12:15:20;;;;;;;7.53;3.35;;;;;;;;;;5010961;28;20181;-56
2023/10/30 12:17:45;;;;;;;4.72;2.33;;;;;;;;;;5012484;28;20026;-55
2023/10/30 12:20:11;;;;;;;17.40;3.67;;;;;;;;;;5010967;28;20037;-56
2023/10/30 12:22:41;;;;;;;17.30;2.83;;;;;;;;;;5012297;28;20026;-56
2023/10/30 12:25:07;;;;;;;15.55;4.00;;;;;;;;;;5010767;28;20084;-55
2023/10/30 12:27:33;;;;;;;9.65;3.28;;;;;;;;;;5012032;28;20432;-55
2023/10/30 12:29:59;;;;;;;5.90;2.10;;;;;;;;;;5010313;28;20113;-55
2023/10/30 12:32:29;;;;;;;6.97;2.63;;;;;;;;;;5012186;28;20489;-56
2023/10/30 12:34:54;;;;;;;8.40;3.38;;;;;;;;;;5010280;28;20092;-63
2023/10/30 12:37:26;;;;;;;8.38;3.70;;;;;;;;;;5011943;28;20373;-55
2023/10/30 12:40:04;;;;;;;8.57;3.58;;;;;;;;;;5010588;28;20037;-56
2023/10/30 12:42:31;;;;;;;11.60;4.38;;;;;;;;;;5009510;28;20040;-56
2023/10/30 12:44:56;;;;;;;15.40;3.38;;;;;;;;;;5009801;28;20033;-56
2023/10/30 12:47:21;;;;;;;7.60;2.85;;;;;;;;;;5011527;28;20469;-55
2023/10/30 12:49:46;;;;;;;12.30;4.40;;;;;;;;;;5010495;28;20038;-56
2023/10/30 12:52:13;;;;;;;7.50;2.88;;;;;;;;;;5011284;28;20425;-58
2023/10/30 12:54:38;;;;;;;5.28;3.15;;;;;;;;;;5010368;28;20025;-55
2023/10/30 12:57:03;;;;;;;5.80;2.28;;;;;;;;;;5009620;28;20059;-56
2023/10/30 12:59:29;;;;;;;14.25;2.28;;;;;;;;;;5007450;28;20014;-55
2023/10/30 13:01:54;;;;;;;10.53;3.10;;;;;;;;;;5011344;28;20084;-56
2023/10/30 13:04:20;;;;;;;7.55;2.30;;;;;;;;;;5011762;28;20428;-55
2023/10/30 13:06:45;;;;;;;7.90;2.88;;;;;;;;;;5009024;28;20041;-56
2023/10/30 13:09:10;;;;;;;6.77;2.07;;;;;;;;;;5010320;28;20535;-56
2023/10/30 13:11:36;;;;;;;5.03;3.37;;;;;;;;;;5009209;28;20034;-56
2023/10/30 13:14:01;;;;;;;6.07;2.43;;;;;;;;;;5009987;28;20472;-55
2023/10/30 13:16:27;;;;;;;3.13;1.73;;;;;;;;;;5009021;28;20509;-56
2023/10/30 13:18:53;;;;;;;8.27;1.90;;;;;;;;;;5010155;28;20485;-56
2023/10/30 13:21:18;;;;;;;2.20;1.60;;;;;;;;;;5008854;28;20065;-55
2023/10/30 13:23:43;;;;;;;6.03;2.55;;;;;;;;;;5011379;28;20471;-56
2023/10/30 13:26:08;;;;;;;14.90;4.70;;;;;;;;;;5009625;28;20516;-56
2023/10/30 13:28:33;;;;;;;6.60;2.70;;;;;;;;;;5010767;28;20045;-64
2023/10/30 13:30:58;;;;;;;19.13;3.55;;;;;;;;;;5009269;28;20532;-55
2023/10/30 13:33:24;;;;;;;8.07;2.40;;;;;;;;;;5008521;28;20014;-56
2023/10/30 13:35:49;;;;;;;6.93;2.38;;;;;;;;;;5008200;28;20517;-55
2023/10/30 13:38:14;;;;;;;10.93;1.93;;;;;;;;;;5010829;28;20022;-56
2023/10/30 13:40:39;;;;;;;4.17;1.93;;;;;;;;;;5009516;28;20033;-56
2023/10/30 13:43:04;;;;;;;6.97;1.85;;;;;;;;;;5010454;28;20033;-56
2023/10/30 13:45:30;;;;;;;6.87;2.83;;;;;;;;;;5008009;28;20393;-56
2023/10/30 13:47:55;;;;;;;5.03;3.27;;;;;;;;;;5010638;28;20428;-56
2023/10/30 13:50:20;;;;;;;3.20;2.37;;;;;;;;;;5008670;28;20464;-55
2023/10/30 13:52:46;;;;;;;3.63;1.55;;;;;;;;;;5010851;28;20436;-56
2023/10/30 13:55:11;;;;;;;3.45;1.70;;;;;;;;;;5008787;28;20030;-56
2023/10/30 13:57:37;;;;;;;5.68;2.70;;;;;;;;;;5010573;28;20022;-56
2023/10/30 14:00:06;;;;;;;6.00;1.60;;;;;;;;;;5009295;28;20038;-56
2023/10/30 14:02:31;;;;;;;2.30;1.80;;;;;;;;;;5011223;28;20093;-56
2023/10/30 14:04:56;;;;;;;5.68;2.45;;;;;;;;;;5008802;28;20511;-68
2023/10/30 14:07:21;;;;;;;5.10;2.50;;;;;;;;;;5010739;28;20022;-56
2023/10/30 14:09:46;;;;;;;2.33;1.70;;;;;;;;;;5009234;28;20038;-56
2023/10/30 14:12:11;;;;;;;6.70;2.90;;;;;;;;;;5013431;28;20506;-55
2023/10/30 14:14:37;;;;;;;4.13;1.70;;;;;;;;;;5013360;28;20484;-55
2023/10/30 14:17:02;;;;;;;4.65;2.13;;;;;;;;;;5014485;28;20018;-55
2023/10/30 14:19:27;;;;;;;5.23;1.67;;;;;;;;;;5014224;28;20026;-53
2023/10/30 14:21:52;;;;;;;6.03;2.17;;;;;;;;;;5014186;28;20018;-56
2023/10/30 14:24:17;;;;;;;3.83;2.47;;;;;;;;;;5014625;28;20076;-56